Time;durP1;ratioP1;P1;durP2;ratioP2;P2;SDS_P1;SDS_P2;PMS_P1;PMS_P2;Temp;Humidity;BMP_temperature;BMP_pressure;BME280_temperature;BME280_humidity;BME280_pressure;Samples;Min_cycle;Max_cycle;Signal;HPM_P1;HPM_P2
2022/04/27 00:01:23;;;;;;;12.20;8.02;;;;;;;6.77;72.38;102310.25;5010646;28;20049;-58
2022/04/27 00:03:48;;;;;;;14.43;8.05;;;;;;;6.68;72.26;102306.44;5008927;28;20038;-58
2022/04/27 00:06:14;;;;;;;16.92;8.57;;;;;;;6.67;71.95;102303.88;5019821;28;20029;-58
2022/04/27 00:08:39;;;;;;;14.02;8.30;;;;;;;6.66;72.54;102304.84;5014032;28;20436;-58
2022/04/27 00:11:04;;;;;;;15.73;8.27;;;;;;;6.69;72.67;102301.97;5014187;28;20038;-58
2022/04/27 00:13:30;;;;;;;13.07;8.20;;;;;;;6.64;72.88;102304.06;5013909;28;20030;-58
2022/04/27 00:15:55;;;;;;;13.73;7.93;;;;;;;6.52;72.95;102301.28;5017195;28;20034;-58
2022/04/27 00:18:21;;;;;;;15.27;8.70;;;;;;;6.49;73.47;102304.13;5014387;28;20076;-57
2022/04/27 00:20:46;;;;;;;13.40;7.97;;;;;;;6.39;73.88;102295.09;5014050;28;20392;-57
2022/04/27 00:23:11;;;;;;;14.10;8.55;;;;;;;6.37;74.15;102289.94;5013930;28;20054;-58
2022/04/27 00:25:36;;;;;;;15.43;8.43;;;;;;;6.45;74.89;102295.56;5017802;28;20088;-58
2022/04/27 00:28:02;;;;;;;14.07;9.05;;;;;;;6.33;75.24;102291.09;5018301;28;20476;-58
2022/04/27 00:30:27;;;;;;;11.48;8.23;;;;;;;6.27;74.40;102289.66;5013503;28;20053;-58
2022/04/27 00:32:53;;;;;;;13.95;8.23;;;;;;;6.14;74.48;102291.38;5013862;28;20033;-58
2022/04/27 00:35:18;;;;;;;13.43;8.40;;;;;;;6.02;74.50;102298.25;5013615;28;20079;-59
2022/04/27 00:37:43;;;;;;;15.85;8.25;;;;;;;5.91;75.04;102301.53;5014999;28;20036;-57
2022/04/27 00:40:09;;;;;;;13.18;8.23;;;;;;;5.83;75.13;102309.06;5013577;28;20142;-58
2022/04/27 00:42:34;;;;;;;14.13;8.43;;;;;;;5.76;75.99;102312.06;5016260;28;20503;-58
2022/04/27 00:45:01;;;;;;;12.10;7.90;;;;;;;5.66;75.46;102303.03;5012351;28;20385;-58
2022/04/27 00:47:30;;;;;;;12.93;8.27;;;;;;;5.58;76.23;102305.28;5011638;28;20049;-57
2022/04/27 00:49:57;;;;;;;11.55;8.05;;;;;;;5.50;75.38;102311.88;5014519;28;20033;-58
2022/04/27 00:52:23;;;;;;;13.40;8.07;;;;;;;5.46;75.44;102307.72;5014145;28;20038;-58
2022/04/27 00:54:52;;;;;;;13.25;8.30;;;;;;;5.40;75.99;102313.34;5021655;28;20041;-59
2022/04/27 00:57:18;;;;;;;16.77;8.60;;;;;;;5.37;76.23;102306.47;5013027;28;20038;-58
2022/04/27 00:59:45;;;;;;;15.88;9.00;;;;;;;5.31;76.38;102311.25;5012833;28;20046;-59
2022/04/27 01:02:11;;;;;;;14.77;8.85;;;;;;;5.31;76.21;102313.88;5012543;28;20156;-59
2022/04/27 01:04:37;;;;;;;15.38;9.40;;;;;;;5.27;76.25;102315.84;5015040;28;20104;-59
2022/04/27 01:07:04;;;;;;;14.60;9.32;;;;;;;5.32;76.66;102315.59;5003649;28;20037;-58
2022/04/27 01:09:31;;;;;;;13.75;8.88;;;;;;;5.30;76.99;102323.56;5027095;28;20034;-58
2022/04/27 01:11:58;;;;;;;14.73;9.07;;;;;;;5.30;76.61;102322.69;5013335;28;20030;-58
2022/04/27 01:14:24;;;;;;;15.07;9.32;;;;;;;5.23;77.12;102312.53;5014061;28;20032;-59
2022/04/27 01:16:53;;;;;;;13.38;9.07;;;;;;;5.17;76.83;102323.41;5015951;28;20042;-58
2022/04/27 01:19:19;;;;;;;13.45;9.15;;;;;;;5.16;77.14;102324.38;5013315;28;20116;-58
2022/04/27 01:21:45;;;;;;;16.98;9.82;;;;;;;5.17;76.79;102318.16;5013960;28;20041;-58
2022/04/27 01:24:11;;;;;;;15.40;9.48;;;;;;;5.18;77.21;102325.13;5012571;28;20496;-58
2022/04/27 01:26:37;;;;;;;15.85;9.90;;;;;;;5.17;76.54;102328.69;5011372;28;20109;-58
2022/04/27 01:29:03;;;;;;;15.57;9.88;;;;;;;5.13;77.08;102332.41;5011111;28;20061;-58
2022/04/27 01:31:28;;;;;;;13.23;9.80;;;;;;;5.03;77.33;102331.28;5012854;28;20453;-58
2022/04/27 01:33:55;;;;;;;13.80;9.35;;;;;;;4.99;76.78;102335.88;5015176;28;20030;-58
2022/04/27 01:36:20;;;;;;;12.85;9.52;;;;;;;4.90;77.15;102326.72;5011658;28;20073;-58
2022/04/27 01:38:45;;;;;;;16.40;10.07;;;;;;;4.88;76.88;102333.00;5025318;28;20057;-58
2022/04/27 01:41:10;;;;;;;17.63;9.98;;;;;;;4.82;77.52;102328.91;5018397;28;20731;-59
2022/04/27 01:43:36;;;;;;;14.33;9.93;;;;;;;4.78;77.67;102330.03;5011689;28;20100;-58
2022/04/27 01:46:03;;;;;;;14.30;10.00;;;;;;;4.72;78.05;102323.34;5010304;28;20089;-58
2022/04/27 01:48:28;;;;;;;15.53;9.97;;;;;;;4.84;77.83;102332.31;5007430;28;20058;-59
2022/04/27 01:50:54;;;;;;;16.77;10.23;;;;;;;4.83;77.54;102330.59;5012351;28;20060;-58
2022/04/27 01:56:24;;;;;;;15.40;10.13;;;;;;;4.89;77.25;102335.50;4990158;28;20043;-58
2022/04/27 01:58:50;;;;;;;17.03;10.40;;;;;;;4.97;77.17;102338.56;4989520;28;20046;-58
2022/04/27 02:01:15;;;;;;;16.90;10.67;;;;;;;4.78;78.55;102343.19;5008331;28;20123;-58
2022/04/27 02:03:41;;;;;;;15.33;10.07;;;;;;;4.89;79.07;102337.31;5013629;28;20036;-58
2022/04/27 02:06:07;;;;;;;15.77;10.70;;;;;;;4.88;78.79;102333.81;5013291;28;20038;-58
2022/04/27 02:08:32;;;;;;;16.90;10.20;;;;;;;4.70;78.48;102339.19;5010357;28;20034;-58
2022/04/27 02:10:57;;;;;;;16.93;10.40;;;;;;;4.68;79.27;102348.06;5012087;28;20030;-59
2022/04/27 02:13:25;;;;;;;18.10;10.40;;;;;;;4.71;79.32;102343.53;5013204;28;20386;-58
2022/04/27 02:15:51;;;;;;;17.43;11.13;;;;;;;4.69;78.73;102341.91;5012037;28;20350;-58
2022/04/27 02:18:18;;;;;;;15.87;10.53;;;;;;;4.67;78.94;102344.63;5018276;28;20079;-58
2022/04/27 02:20:43;;;;;;;18.10;11.00;;;;;;;4.55;79.37;102347.94;5012851;28;20029;-58
2022/04/27 02:23:08;;;;;;;17.13;10.93;;;;;;;4.53;79.96;102349.78;5014503;28;20210;-59
2022/04/27 02:25:33;;;;;;;14.48;10.45;;;;;;;4.64;79.24;102347.41;5007392;28;20034;-58
2022/04/27 02:27:59;;;;;;;16.43;10.77;;;;;;;4.69;79.60;102350.63;5027281;28;20405;-58
2022/04/27 02:30:24;;;;;;;14.70;10.30;;;;;;;4.68;79.04;102358.59;5009012;28;20101;-58
2022/04/27 02:32:50;;;;;;;16.87;9.97;;;;;;;4.61;78.51;102352.84;5010472;28;20033;-59
2022/04/27 02:35:15;;;;;;;15.47;10.70;;;;;;;4.52;79.42;102348.09;5009128;28;20069;-58
2022/04/27 02:37:41;;;;;;;17.77;10.40;;;;;;;4.49;79.43;102353.53;5010984;28;20036;-58
2022/04/27 02:40:10;;;;;;;16.23;10.27;;;;;;;4.45;79.75;102352.84;5012931;28;20025;-59
2022/04/27 02:42:35;;;;;;;18.25;10.50;;;;;;;4.43;79.58;102363.44;5012008;28;20048;-58
2022/04/27 02:45:01;;;;;;;16.90;10.57;;;;;;;4.37;79.51;102369.03;5011928;28;20509;-58
2022/04/27 02:47:26;;;;;;;15.20;10.57;;;;;;;4.30;79.82;102367.66;5012099;28;20110;-58
2022/04/27 02:52:35;;;;;;;16.00;11.17;;;;;;;4.21;80.88;102376.00;5009289;28;20121;-58
2022/04/27 02:55:01;;;;;;;18.53;10.97;;;;;;;4.14;80.84;102365.84;5011165;28;20109;-58
2022/04/27 02:57:27;;;;;;;16.10;11.30;;;;;;;4.12;80.57;102372.97;5011367;28;20108;-58
2022/04/27 02:59:52;;;;;;;15.83;10.53;;;;;;;4.10;80.62;102374.78;5029086;28;20030;-59
2022/04/27 03:02:17;;;;;;;17.10;11.40;;;;;;;4.08;80.40;102368.78;5011018;28;20046;-58
2022/04/27 03:04:43;;;;;;;18.03;11.67;;;;;;;4.11;80.66;102375.66;5017597;28;20029;-58
2022/04/27 03:07:08;;;;;;;17.53;11.17;;;;;;;4.14;80.88;102368.47;5014465;28;20038;-58
2022/04/27 03:09:34;;;;;;;18.83;12.30;;;;;;;3.96;81.17;102372.91;5014923;28;20038;-58
2022/04/27 03:12:00;;;;;;;18.97;12.37;;;;;;;4.04;80.86;102375.13;5012012;28;20042;-58
2022/04/27 03:14:25;;;;;;;17.47;11.03;;;;;;;4.07;80.96;102367.09;5010356;28;20357;-58
2022/04/27 03:16:52;;;;;;;21.43;11.10;;;;;;;4.15;80.77;102367.53;5012156;28;20042;-58
2022/04/27 03:19:17;;;;;;;19.87;12.60;;;;;;;4.19;81.09;102364.75;5010980;28;20057;-59
2022/04/27 03:21:43;;;;;;;20.60;12.37;;;;;;;4.24;80.69;102370.63;5023596;28;20139;-58
2022/04/27 03:24:08;;;;;;;19.63;12.07;;;;;;;4.21;79.81;102376.00;5010257;28;20049;-59
2022/04/27 03:26:33;;;;;;;19.33;11.97;;;;;;;4.19;79.67;102373.47;5010837;28;20034;-58
2022/04/27 03:28:59;;;;;;;20.83;12.07;;;;;;;4.20;80.06;102379.56;5001411;28;20077;-58
2022/04/27 03:31:24;;;;;;;21.17;13.30;;;;;;;4.19;80.18;102378.72;5011784;28;20061;-57
2022/04/27 03:33:50;;;;;;;21.90;13.60;;;;;;;4.03;81.03;102381.31;5009917;28;20156;-58
2022/04/27 03:36:15;;;;;;;20.43;13.27;;;;;;;3.93;81.15;102380.06;5014930;28;20148;-59
2022/04/27 03:38:42;;;;;;;18.00;12.93;;;;;;;3.89;80.92;102377.63;5011622;28;20041;-59
2022/04/27 03:41:08;;;;;;;19.37;12.77;;;;;;;3.89;81.07;102377.63;5018527;28;20044;-58
2022/04/27 03:43:33;;;;;;;21.87;13.30;;;;;;;3.96;81.79;102379.94;5015571;28;20416;-58
2022/04/27 03:45:59;;;;;;;22.00;13.37;;;;;;;4.02;81.21;102379.63;5019132;28;20067;-58
2022/04/27 03:48:24;;;;;;;18.00;12.13;;;;;;;4.00;80.43;102386.72;5017170;28;20489;-58
2022/04/27 03:50:49;;;;;;;18.53;13.27;;;;;;;3.98;80.64;102384.19;5019970;28;20037;-59
2022/04/27 03:53:14;;;;;;;21.10;12.47;;;;;;;3.90;81.22;102384.56;5014202;28;20044;-59
2022/04/27 03:55:40;;;;;;;17.67;12.13;;;;;;;3.86;81.30;102397.94;5018776;28;20457;-59
2022/04/27 03:58:05;;;;;;;19.50;12.33;;;;;;;3.66;81.99;102398.94;5009852;28;20034;-58
2022/04/27 04:00:32;;;;;;;20.33;12.83;;;;;;;3.72;82.22;102399.50;5011391;28;20041;-59
2022/04/27 04:03:01;;;;;;;20.57;13.07;;;;;;;3.73;82.68;102403.81;5013509;28;20087;-58
2022/04/27 04:05:27;;;;;;;17.63;12.20;;;;;;;3.81;82.15;102403.44;5013555;28;20034;-59
2022/04/27 04:07:52;;;;;;;19.70;13.53;;;;;;;3.86;81.57;102406.63;5017489;28;20405;-59
2022/04/27 04:10:18;;;;;;;18.03;11.80;;;;;;;3.75;81.43;102409.81;5014660;28;20160;-58
2022/04/27 04:12:46;;;;;;;17.10;12.03;;;;;;;3.79;81.92;102415.75;5013846;28;20499;-58
2022/04/27 04:15:15;;;;;;;20.10;12.47;;;;;;;3.73;81.32;102416.06;5022872;28;20045;-58
2022/04/27 04:17:44;;;;;;;18.20;11.60;;;;;;;3.63;80.90;102419.19;5014933;28;20034;-59
2022/04/27 04:20:19;;;;;;;16.33;11.50;;;;;;;3.60;81.01;102414.06;5019006;28;20388;-58
2022/04/27 04:22:46;;;;;;;18.20;12.30;;;;;;;3.61;81.45;102421.00;5012097;28;20050;-58
2022/04/27 04:30:41;;;;;;;21.07;13.13;;;;;;;3.49;82.08;102421.63;5014335;28;20448;-58
2022/04/27 04:33:07;;;;;;;19.47;13.57;;;;;;;3.54;82.19;102424.88;5019864;28;20061;-58
2022/04/27 04:35:33;;;;;;;19.27;13.27;;;;;;;3.57;81.81;102424.72;5014466;28;20475;-58
2022/04/27 04:37:58;;;;;;;19.00;13.07;;;;;;;3.59;81.56;102422.88;5014884;28;20033;-58
2022/04/27 04:40:24;;;;;;;18.97;12.67;;;;;;;3.60;81.41;102429.81;5027229;28;20058;-60
2022/04/27 04:42:49;;;;;;;19.07;12.27;;;;;;;3.57;81.59;102429.97;5017776;28;20037;-56
2022/04/27 04:45:15;;;;;;;18.20;12.30;;;;;;;3.52;81.78;102439.84;5013815;28;20573;-56
2022/04/27 04:47:42;;;;;;;17.67;11.80;;;;;;;3.50;81.65;102444.28;5025256;28;20041;-58
2022/04/27 04:50:08;;;;;;;18.03;12.30;;;;;;;3.48;81.82;102447.00;5018203;28;20037;-58
2022/04/27 04:52:33;;;;;;;18.03;11.97;;;;;;;3.43;81.65;102449.00;5017652;28;20034;-59
2022/04/27 04:54:58;;;;;;;19.07;11.97;;;;;;;3.44;82.11;102452.47;5013372;28;20369;-58
2022/04/27 04:57:24;;;;;;;21.10;13.30;;;;;;;3.35;82.95;102449.38;5027039;28;20038;-59
2022/04/27 04:59:50;;;;;;;21.77;13.57;;;;;;;3.25;83.04;102450.72;5013335;28;20048;-58
2022/04/27 05:02:15;;;;;;;21.30;14.00;;;;;;;3.25;83.47;102445.47;5018858;28;20057;-59
2022/04/27 05:04:40;;;;;;;19.77;12.90;;;;;;;3.25;82.91;102449.91;5011645;28;20037;-58
2022/04/27 05:07:06;;;;;;;20.23;13.53;;;;;;;3.27;83.63;102459.38;5003443;28;20060;-59
2022/04/27 05:09:31;;;;;;;23.37;14.80;;;;;;;3.31;83.99;102460.91;5009257;28;20033;-58
2022/04/27 05:11:56;;;;;;;23.47;14.93;;;;;;;3.29;84.23;102457.53;5004319;28;20042;-59
2022/04/27 05:14:22;;;;;;;23.00;14.77;;;;;;;3.32;83.64;102462.66;5004179;28;20041;-59
2022/04/27 05:16:47;;;;;;;21.60;14.40;;;;;;;3.43;83.66;102463.88;5004137;28;20105;-59
2022/04/27 05:19:12;;;;;;;22.10;14.77;;;;;;;3.57;83.43;102461.44;5006735;28;20034;-58
2022/04/27 05:21:38;;;;;;;25.97;15.83;;;;;;;3.63;84.14;102461.16;5006218;28;20049;-58
2022/04/27 05:24:03;;;;;;;23.20;15.07;;;;;;;3.76;83.76;102476.28;5009147;28;20171;-59
2022/04/27 05:26:29;;;;;;;22.27;14.47;;;;;;;3.78;83.78;102479.66;5009983;28;20034;-59
2022/04/27 05:31:54;;;;;;;21.50;14.83;;;;;;;3.76;83.96;102482.38;5005902;28;20041;-59
2022/04/27 05:34:19;;;;;;;22.93;14.77;;;;;;;3.88;83.83;102480.91;5003498;28;20034;-59
2022/04/27 05:36:45;;;;;;;22.73;15.47;;;;;;;3.93;84.54;102485.06;5005487;28;20028;-58
2022/04/27 05:39:10;;;;;;;22.13;15.37;;;;;;;3.92;84.49;102486.88;5006810;28;20092;-58
2022/04/27 05:41:35;;;;;;;24.83;15.47;;;;;;;3.97;84.41;102489.25;5003581;28;20038;-58
2022/04/27 05:44:03;;;;;;;22.37;15.20;;;;;;;4.06;84.48;102498.44;5012596;28;20025;-58
2022/04/27 05:46:29;;;;;;;24.57;15.90;;;;;;;4.09;84.53;102498.28;4998431;28;20481;-58
2022/04/27 05:48:54;;;;;;;24.17;15.53;;;;;;;4.23;83.77;102495.81;5006532;28;20034;-59
2022/04/27 05:51:19;;;;;;;24.07;15.80;;;;;;;4.34;84.47;102495.25;5003393;28;20065;-58
2022/04/27 05:53:45;;;;;;;25.20;15.93;;;;;;;4.45;84.39;102494.69;5010981;28;20663;-59
2022/04/27 05:56:10;;;;;;;23.07;16.30;;;;;;;4.55;84.86;102500.31;5002806;28;20779;-59
2022/04/27 05:58:35;;;;;;;26.50;15.93;;;;;;;4.64;85.04;102505.06;5010697;28;20084;-59
2022/04/27 06:01:00;;;;;;;21.43;15.20;;;;;;;4.79;83.85;102502.56;5019158;28;20045;-58
2022/04/27 06:03:26;;;;;;;24.83;15.33;;;;;;;4.90;84.65;102510.75;5010405;28;20612;-58
2022/04/27 06:05:51;;;;;;;22.30;14.87;;;;;;;4.98;84.91;102503.28;5006192;28;20099;-58
2022/04/27 06:08:17;;;;;;;23.13;15.13;;;;;;;5.07;84.41;102507.19;5004617;28;20048;-59
2022/04/27 06:10:42;;;;;;;23.98;15.43;;;;;;;5.15;84.40;102509.41;5012003;28;20054;-58
2022/04/27 06:13:07;;;;;;;22.27;15.30;;;;;;;5.25;84.36;102512.38;5011832;28;20424;-59
2022/04/27 06:15:33;;;;;;;23.65;15.38;;;;;;;5.35;84.22;102512.69;5012290;28;20485;-58
2022/04/27 06:17:58;;;;;;;21.95;14.93;;;;;;;5.46;84.24;102518.22;5013547;28;20100;-59
2022/04/27 06:20:23;;;;;;;22.83;15.35;;;;;;;5.56;84.58;102517.69;5025466;28;20099;-59
2022/04/27 06:22:49;;;;;;;22.35;15.25;;;;;;;5.65;83.77;102514.53;5019531;28;20132;-59
2022/04/27 06:25:14;;;;;;;21.73;13.45;;;;;;;5.77;82.46;102516.47;5029773;28;20041;-58
2022/04/27 06:27:40;;;;;;;23.38;13.98;;;;;;;5.87;83.32;102522.03;5017885;28;20034;-58
2022/04/27 06:30:06;;;;;;;20.95;12.85;;;;;;;5.93;80.66;102523.47;5023604;28;20037;-59
2022/04/27 06:32:32;;;;;;;20.15;12.65;;;;;;;6.04;80.75;102523.75;5010164;28;20035;-58
2022/04/27 06:34:59;;;;;;;18.38;12.02;;;;;;;6.08;79.43;102524.41;5020364;28;20315;-58
2022/04/27 06:37:24;;;;;;;19.70;12.48;;;;;;;6.23;80.13;102530.56;5024466;28;20048;-59
2022/04/27 06:39:49;;;;;;;21.17;12.90;;;;;;;6.32;80.18;102530.00;5013411;28;20072;-59
2022/04/27 06:42:19;;;;;;;19.50;12.05;;;;;;;6.39;79.65;102530.50;5016698;28;20026;-58
2022/04/27 06:44:45;;;;;;;22.17;12.60;;;;;;;6.51;79.06;102530.69;5021546;28;20092;-59
2022/04/27 06:47:10;;;;;;;19.55;12.38;;;;;;;6.61;78.50;102533.63;5018841;28;20520;-59
2022/04/27 06:49:35;;;;;;;23.02;13.35;;;;;;;6.69;78.60;102539.25;5005644;28;20028;-59
2022/04/27 06:52:01;;;;;;;17.73;12.30;;;;;;;6.79;78.39;102536.91;5003880;28;20038;-59
2022/04/27 06:54:26;;;;;;;22.15;13.23;;;;;;;6.91;78.85;102538.78;5003732;28;20038;-59
2022/04/27 06:56:51;;;;;;;24.45;12.48;;;;;;;6.97;78.73;102542.84;5010827;28;20103;-59
2022/04/27 06:59:17;;;;;;;22.25;12.77;;;;;;;7.05;77.42;102545.84;5003923;28;20057;-60
2022/04/27 07:01:42;;;;;;;21.33;13.10;;;;;;;7.12;77.60;102544.50;5005593;28;20038;-59
2022/04/27 07:04:11;;;;;;;21.40;12.93;;;;;;;7.19;76.77;102549.38;5006257;28;20434;-59
2022/04/27 07:06:36;;;;;;;20.40;12.82;;;;;;;7.26;76.58;102553.34;5003770;28;20073;-59
2022/04/27 07:09:03;;;;;;;21.58;12.82;;;;;;;7.31;77.40;102553.91;5004081;28;20041;-60
2022/04/27 07:11:29;;;;;;;18.75;12.20;;;;;;;7.38;75.75;102560.50;5003456;28;20027;-59
2022/04/27 07:13:57;;;;;;;20.70;12.68;;;;;;;7.45;75.45;102557.47;5007317;28;20116;-59
2022/04/27 07:16:22;;;;;;;20.88;12.10;;;;;;;7.47;75.33;102555.56;5010601;28;20041;-59
2022/04/27 07:18:50;;;;;;;19.27;11.68;;;;;;;7.56;74.13;102560.25;5016139;28;20527;-59
2022/04/27 07:21:15;;;;;;;22.20;11.90;;;;;;;7.61;74.73;102558.13;5012824;28;20026;-59
2022/04/27 07:23:40;;;;;;;18.33;11.75;;;;;;;7.66;75.21;102556.06;5019176;28;20050;-59
2022/04/27 07:26:07;;;;;;;18.65;11.65;;;;;;;7.81;74.85;102561.31;5011912;28;20034;-60
2022/04/27 07:28:32;;;;;;;21.02;12.13;;;;;;;7.92;73.99;102561.44;5010823;28;20048;-59
2022/04/27 07:30:57;;;;;;;18.23;11.77;;;;;;;8.01;73.21;102567.06;5012736;28;20034;-59
2022/04/27 07:33:24;;;;;;;17.92;11.05;;;;;;;8.11;72.80;102570.78;5014385;28;20061;-60
2022/04/27 07:35:49;;;;;;;17.35;11.20;;;;;;;8.17;72.66;102575.66;5003141;28;20042;-60
2022/04/27 07:38:14;;;;;;;18.90;10.60;;;;;;;8.28;71.58;102582.00;5014633;28;20041;-59
2022/04/27 07:40:41;;;;;;;16.70;9.55;;;;;;;8.33;69.85;102585.19;5014123;28;20439;-60
2022/04/27 07:43:06;;;;;;;16.02;9.60;;;;;;;8.45;69.23;102579.06;5014782;28;20528;-60
2022/04/27 07:45:31;;;;;;;14.70;8.75;;;;;;;8.53;68.70;102572.47;5023170;28;20042;-59
2022/04/27 07:47:57;;;;;;;14.63;8.35;;;;;;;8.62;65.39;102579.75;5016596;28;20084;-59
2022/04/27 07:50:22;;;;;;;16.40;9.05;;;;;;;8.69;66.83;102581.00;5032627;28;20050;-60
2022/04/27 07:52:47;;;;;;;13.75;8.23;;;;;;;8.73;64.69;102586.94;5022042;28;20030;-59
2022/04/27 07:55:13;;;;;;;15.25;8.82;;;;;;;8.79;64.89;102578.56;5013692;28;20045;-59
2022/04/27 07:57:38;;;;;;;15.88;9.55;;;;;;;8.79;64.52;102580.38;5011053;28;20037;-59
2022/04/27 08:00:07;;;;;;;17.70;9.77;;;;;;;8.82;67.82;102580.16;5015014;28;20049;-59
2022/04/27 08:02:32;;;;;;;16.77;9.52;;;;;;;8.93;66.13;102585.56;5009102;28;20058;-57
2022/04/27 08:04:57;;;;;;;17.85;9.50;;;;;;;9.07;65.76;102583.75;4998633;28;20417;-58
2022/04/27 08:07:23;;;;;;;19.70;10.10;;;;;;;9.15;64.90;102586.69;5006602;28;20026;-59
2022/04/27 08:09:48;;;;;;;13.80;7.20;;;;;;;9.22;62.40;102587.13;5019340;28;20795;-59
2022/04/27 08:12:14;;;;;;;13.90;7.38;;;;;;;9.21;59.88;102590.69;5000033;28;20586;-59
2022/04/27 08:14:39;;;;;;;12.20;6.85;;;;;;;9.27;60.48;102588.47;5001901;28;20042;-58
2022/04/27 08:17:04;;;;;;;9.48;5.10;;;;;;;9.31;58.25;102590.91;5011554;28;20537;-59
2022/04/27 08:19:30;;;;;;;10.63;5.00;;;;;;;9.33;57.67;102594.28;5005321;28;20018;-59
2022/04/27 08:21:55;;;;;;;12.52;6.05;;;;;;;9.39;57.74;102593.84;5004259;28;20030;-59
2022/04/27 08:24:22;;;;;;;11.68;6.60;;;;;;;9.51;58.65;102598.25;5001121;28;20505;-59
2022/04/27 08:26:48;;;;;;;12.43;6.40;;;;;;;9.57;58.39;102606.72;5007002;28;20026;-59
2022/04/27 08:29:13;;;;;;;13.00;7.68;;;;;;;9.65;58.49;102599.03;5010752;28;20042;-60
2022/04/27 08:31:38;;;;;;;11.18;7.22;;;;;;;9.72;58.42;102605.56;5015627;28;20624;-59
2022/04/27 08:34:05;;;;;;;11.77;6.93;;;;;;;9.75;56.45;102600.06;5023663;28;20354;-59
2022/04/27 08:36:31;;;;;;;13.57;7.35;;;;;;;9.86;57.84;102601.09;5009465;28;20045;-60
2022/04/27 08:38:57;;;;;;;13.43;7.25;;;;;;;9.86;57.18;102603.75;5002350;28;20034;-59
2022/04/27 08:41:22;;;;;;;14.98;6.95;;;;;;;9.97;57.92;102601.16;5010618;28;20036;-59
2022/04/27 08:43:48;;;;;;;12.20;7.70;;;;;;;10.03;58.04;102602.47;5002209;28;20154;-60
2022/04/27 08:46:15;;;;;;;12.82;7.03;;;;;;;10.13;59.30;102608.78;5003125;28;20435;-60
2022/04/27 08:48:45;;;;;;;12.70;6.95;;;;;;;10.19;56.70;102610.13;5002485;28;20121;-59
2022/04/27 08:51:11;;;;;;;11.25;6.40;;;;;;;10.19;54.95;102603.03;5011343;28;20041;-59
2022/04/27 08:53:37;;;;;;;10.82;6.72;;;;;;;10.19;55.42;102607.47;5005309;28;20411;-59
2022/04/27 08:56:02;;;;;;;14.50;6.85;;;;;;;10.20;56.75;102619.75;5010795;28;20056;-60
2022/04/27 08:58:27;;;;;;;11.55;6.70;;;;;;;10.19;53.03;102612.78;5005733;28;20073;-59
2022/04/27 09:00:53;;;;;;;11.73;6.88;;;;;;;10.15;56.77;102616.59;5008679;28;20061;-60
2022/04/27 09:03:21;;;;;;;10.32;5.97;;;;;;;10.23;54.02;102614.25;5004136;28;20632;-60
2022/04/27 09:05:52;;;;;;;9.50;5.90;;;;;;;10.32;54.84;102615.38;5008404;28;20043;-59
2022/04/27 09:08:17;;;;;;;12.07;6.50;;;;;;;10.36;53.15;102608.84;5002365;28;20034;-59
2022/04/27 09:10:43;;;;;;;9.85;6.10;;;;;;;10.44;54.52;102610.94;5014363;28;20022;-59
2022/04/27 09:13:08;;;;;;;10.50;6.05;;;;;;;10.56;53.84;102615.31;5004312;28;20026;-60
2022/04/27 09:15:33;;;;;;;11.10;6.00;;;;;;;10.57;52.01;102614.34;5005679;28;20488;-60
2022/04/27 09:23:32;;;;;;;9.93;6.25;;;;;;;10.66;52.04;102615.44;4996870;28;20050;-59
2022/04/27 09:26:12;;;;;;;9.63;6.45;;;;;;;10.59;51.15;102617.75;5007200;28;20069;-59
2022/04/27 09:28:37;;;;;;;10.27;6.32;;;;;;;10.69;51.48;102614.38;5004104;28;20088;-59
2022/04/27 09:31:03;;;;;;;12.32;6.25;;;;;;;10.86;53.55;102611.25;5006712;28;21010;-59
2022/04/27 09:33:35;;;;;;;11.60;6.65;;;;;;;10.84;50.09;102618.50;4997743;28;20034;-60
2022/04/27 09:36:17;;;;;;;12.57;6.70;;;;;;;11.04;52.69;102608.13;5011439;28;20100;-59
2022/04/27 09:38:42;;;;;;;12.15;7.07;;;;;;;11.14;51.42;102606.44;5019799;28;20061;-60
2022/04/27 09:41:07;;;;;;;9.93;6.88;;;;;;;11.23;53.21;102609.31;5005611;28;20076;-59
2022/04/27 09:43:44;;;;;;;11.55;6.80;;;;;;;11.25;50.84;102604.75;5007299;28;20121;-60
2022/04/27 09:46:22;;;;;;;12.90;7.22;;;;;;;11.24;51.49;102608.34;5006341;28;20065;-59
2022/04/27 09:49:13;;;;;;;14.23;7.38;;;;;;;11.16;51.29;102612.47;5004366;28;20037;-59
2022/04/27 09:51:53;;;;;;;13.07;7.40;;;;;;;11.20;51.55;102606.94;5005969;28;20438;-59
2022/04/27 09:54:21;;;;;;;12.75;7.40;;;;;;;11.29;50.30;102606.19;5008895;28;20397;-60
2022/04/27 09:56:56;;;;;;;11.20;6.97;;;;;;;11.52;51.44;102608.78;5007441;28;20042;-59
2022/04/27 09:59:26;;;;;;;11.90;7.25;;;;;;;11.69;51.63;102613.59;5006699;28;20037;-59
2022/04/27 10:01:53;;;;;;;11.27;7.32;;;;;;;11.66;49.72;102613.84;5009402;28;20115;-59
2022/04/27 10:04:20;;;;;;;13.45;7.68;;;;;;;11.74;51.52;102609.72;5006956;28;20030;-59
2022/04/27 10:06:47;;;;;;;12.27;7.72;;;;;;;11.76;49.72;102618.41;5010952;28;20041;-60
2022/04/27 10:09:13;;;;;;;12.68;7.95;;;;;;;11.76;48.34;102618.41;5009863;28;20038;-59
2022/04/27 10:11:40;;;;;;;10.07;7.85;;;;;;;11.86;48.36;102624.66;5008649;28;20038;-59
2022/04/27 10:14:07;;;;;;;13.75;7.80;;;;;;;11.88;48.35;102606.75;5009494;28;20121;-59
2022/04/27 10:16:32;;;;;;;15.35;8.57;;;;;;;12.07;48.19;102606.13;5021295;28;20033;-60
2022/04/27 10:18:57;;;;;;;12.10;8.60;;;;;;;12.12;50.33;102613.72;5008411;28;20192;-60
2022/04/27 10:21:43;;;;;;;11.07;7.95;;;;;;;12.10;49.64;102610.34;5007952;28;20024;-59
2022/04/27 10:24:12;;;;;;;10.85;8.02;;;;;;;12.14;47.99;102601.13;5004951;28;20041;-59
2022/04/27 10:26:37;;;;;;;12.13;7.90;;;;;;;12.22;48.33;102601.34;5005845;28;20026;-60
2022/04/27 10:29:05;;;;;;;13.63;8.32;;;;;;;12.39;49.39;102599.06;5004358;28;20022;-60
2022/04/27 10:31:39;;;;;;;13.23;8.00;;;;;;;12.46;51.44;102600.22;5005739;28;20122;-60
2022/04/27 10:34:33;;;;;;;14.75;9.13;;;;;;;12.74;48.71;102597.84;5009484;28;20038;-60
2022/04/27 10:37:03;;;;;;;12.95;9.32;;;;;;;12.46;48.65;102594.91;5011045;28;20062;-60
2022/04/27 10:39:32;;;;;;;16.17;8.85;;;;;;;12.16;46.45;102588.56;5005870;28;20038;-59
2022/04/27 10:42:03;;;;;;;14.85;8.63;;;;;;;12.27;48.47;102594.75;5005879;28;20180;-60
2022/04/27 10:44:47;;;;;;;12.93;8.50;;;;;;;12.36;47.77;102594.84;5008042;28;20040;-61
2022/04/27 10:47:14;;;;;;;14.52;9.13;;;;;;;12.35;46.77;102592.31;5001800;28;20460;-60
2022/04/27 10:49:39;;;;;;;13.35;8.80;;;;;;;12.48;46.94;102587.63;5009784;28;20080;-60
2022/04/27 10:52:07;;;;;;;13.02;8.57;;;;;;;12.57;48.15;102595.78;5004650;28;20053;-60
2022/04/27 10:54:34;;;;;;;12.38;8.63;;;;;;;12.62;47.47;102593.56;5016228;28;20018;-60
2022/04/27 10:57:15;;;;;;;13.32;8.77;;;;;;;12.69;47.57;102588.59;5004220;28;20413;-59
2022/04/27 11:00:05;;;;;;;12.95;8.52;;;;;;;12.75;47.99;102588.06;5004084;28;20038;-58
2022/04/27 11:02:37;;;;;;;14.50;8.00;;;;;;;12.93;47.35;102585.59;4999082;28;20032;-60
2022/04/27 11:05:18;;;;;;;11.77;7.10;;;;;;;13.03;49.48;102586.47;5003221;28;20029;-60
2022/04/27 11:07:56;;;;;;;12.43;7.97;;;;;;;13.23;49.20;102594.53;5002186;28;20026;-60
2022/04/27 11:10:22;;;;;;;11.43;7.70;;;;;;;13.37;49.74;102592.47;5003866;28;20030;-60
2022/04/27 11:12:52;;;;;;;13.75;7.63;;;;;;;13.24;48.37;102592.72;5003619;28;20088;-60
2022/04/27 11:15:25;;;;;;;12.30;8.30;;;;;;;12.74;45.80;102592.53;5001982;28;20018;-60
2022/04/27 11:18:01;;;;;;;12.77;7.70;;;;;;;12.51;46.50;102595.38;5003778;28;20030;-59
2022/04/27 11:20:32;;;;;;;12.18;8.10;;;;;;;12.50;46.74;102583.00;5005433;28;20034;-60
2022/04/27 11:22:59;;;;;;;15.73;8.30;;;;;;;12.64;47.28;102584.50;5018009;28;20127;-60
2022/04/27 11:25:31;;;;;;;14.18;8.10;;;;;;;12.73;46.24;102585.50;5009813;28;20026;-60
2022/04/27 11:27:59;;;;;;;12.57;7.80;;;;;;;12.80;45.40;102584.97;5003156;28;20022;-60
2022/04/27 11:30:25;;;;;;;14.60;8.45;;;;;;;12.97;45.56;102581.69;5007538;28;20097;-60
2022/04/27 11:32:51;;;;;;;14.07;8.13;;;;;;;13.27;47.45;102582.63;5005678;28;20113;-59
2022/04/27 11:35:17;;;;;;;13.45;8.20;;;;;;;13.49;46.03;102586.09;5017174;28;20464;-60
2022/04/27 11:37:43;;;;;;;10.77;7.97;;;;;;;13.72;44.73;102581.31;5001051;28;20030;-60